createdAt,value
2023-04-29T00:00:11.194Z,99.63
2023-04-29T00:02:39.062Z,100.00
2023-04-29T00:05:07.880Z,100.00
2023-04-29T00:07:36.399Z,100.00
2023-04-29T00:10:06.561Z,99.61
2023-04-29T00:12:34.399Z,100.00
2023-04-29T00:15:03.093Z,100.00
2023-04-29T00:17:30.996Z,100.00
2023-04-29T00:19:58.695Z,100.00
2023-04-29T00:22:26.411Z,100.00
2023-04-29T00:24:54.255Z,100.00
2023-04-29T00:27:23.386Z,100.00
2023-04-29T00:29:51.226Z,100.00
2023-04-29T00:32:19.105Z,100.00
2023-04-29T00:34:46.746Z,100.00
2023-04-29T00:37:14.422Z,100.00
2023-04-29T00:39:42.076Z,100.00
2023-04-29T00:42:11.131Z,100.00
2023-04-29T00:44:40.365Z,100.00
2023-04-29T00:47:11.371Z,100.00
2023-04-29T00:49:39.729Z,100.00
2023-04-29T00:52:08.702Z,100.00
2023-04-29T00:54:36.774Z,100.00
2023-04-29T00:57:07.183Z,100.00
2023-04-29T00:59:35.050Z,100.00
2023-04-29T01:02:04.872Z,100.00
2023-04-29T01:04:32.698Z,100.00
2023-04-29T01:07:10.137Z,100.00
2023-04-29T01:09:51.630Z,100.00
2023-04-29T01:12:23.430Z,100.00
2023-04-29T01:15:01.662Z,100.00
2023-04-29T01:17:35.964Z,100.00
2023-04-29T01:20:05.620Z,100.00
2023-04-29T01:22:33.335Z,100.00
2023-04-29T01:25:02.356Z,100.00
2023-04-29T01:27:35.434Z,100.00
2023-04-29T01:30:11.561Z,100.00
2023-04-29T01:32:52.309Z,100.00
2023-04-29T01:35:31.227Z,100.00
2023-04-29T01:38:11.017Z,100.00
2023-04-29T01:40:48.674Z,100.00
2023-04-29T01:43:18.339Z,100.00
2023-04-29T01:45:46.287Z,100.00
2023-04-29T01:48:14.339Z,100.00
2023-04-29T01:50:42.044Z,100.00
2023-04-29T01:53:09.783Z,100.00
2023-04-29T01:55:37.537Z,100.00
2023-04-29T01:58:06.618Z,100.00
2023-04-29T02:00:34.347Z,100.00
2023-04-29T02:03:02.233Z,100.00
2023-04-29T02:05:32.365Z,100.00
2023-04-29T02:08:00.144Z,100.00
2023-04-29T02:10:27.921Z,100.00
2023-04-29T02:12:55.754Z,100.00
2023-04-29T02:15:27.658Z,100.00
2023-04-29T02:17:55.710Z,100.00
2023-04-29T02:20:23.459Z,100.00
2023-04-29T02:22:51.424Z,100.00
2023-04-29T02:25:19.126Z,100.00
2023-04-29T02:27:46.851Z,100.00
2023-04-29T02:30:14.612Z,100.00
2023-04-29T02:32:43.688Z,100.00
2023-04-29T02:35:12.594Z,100.00
2023-04-29T02:37:40.376Z,100.00
2023-04-29T02:40:09.364Z,100.00
2023-04-29T02:42:37.889Z,100.00
2023-04-29T02:45:06.542Z,100.00
2023-04-29T02:47:34.316Z,100.00
2023-04-29T02:50:04.801Z,100.00
2023-04-29T02:52:32.739Z,100.00
2023-04-29T02:55:00.432Z,100.00
2023-04-29T02:57:29.620Z,100.00
2023-04-29T02:59:57.467Z,100.00
2023-04-29T03:02:25.309Z,100.00
2023-04-29T03:04:53.351Z,100.00
2023-04-29T03:07:22.693Z,100.00
2023-04-29T03:09:50.711Z,100.00
2023-04-29T03:12:18.516Z,100.00
2023-04-29T03:14:46.231Z,100.00
2023-04-29T03:17:14.068Z,100.00
2023-04-29T03:19:41.990Z,100.00
2023-04-29T03:22:10.622Z,100.00
2023-04-29T03:24:40.101Z,100.00
2023-04-29T03:27:07.816Z,100.00
2023-04-29T03:29:35.687Z,100.00
2023-04-29T03:32:03.461Z,100.00
2023-04-29T03:34:31.326Z,100.00
2023-04-29T03:36:59.769Z,100.00
2023-04-29T03:39:28.213Z,100.00
2023-04-29T03:41:57.314Z,100.00
2023-04-29T03:44:25.121Z,100.00
2023-04-29T03:46:52.896Z,100.00
2023-04-29T03:49:20.604Z,100.00
2023-04-29T03:51:48.311Z,100.00
2023-04-29T03:54:16.149Z,100.00
2023-04-29T03:56:44.103Z,100.00
2023-04-29T03:59:13.150Z,100.00
2023-04-29T04:01:40.861Z,100.00
2023-04-29T04:04:08.795Z,100.00
2023-04-29T04:06:36.617Z,100.00
2023-04-29T04:09:04.514Z,100.00
2023-04-29T04:11:32.224Z,100.00
2023-04-29T04:13:59.939Z,100.00
2023-04-29T04:16:29.002Z,100.00
2023-04-29T04:18:56.709Z,100.00
2023-04-29T04:21:25.228Z,100.00
2023-04-29T04:23:52.923Z,100.00
2023-04-29T04:26:21.577Z,100.00
2023-04-29T04:28:49.508Z,100.00
2023-04-29T04:31:17.315Z,100.00
2023-04-29T04:33:46.384Z,100.00
2023-04-29T04:36:14.515Z,100.00
2023-04-29T04:38:42.194Z,100.00
2023-04-29T04:41:09.944Z,100.00
2023-04-29T04:43:37.652Z,100.00
2023-04-29T04:46:11.837Z,100.00
2023-04-29T04:48:39.740Z,100.00
2023-04-29T04:51:12.467Z,100.00
2023-04-29T04:53:41.057Z,100.00
2023-04-29T04:56:09.504Z,100.00
2023-04-29T04:58:37.170Z,100.00
2023-04-29T05:01:05.063Z,100.00
2023-04-29T05:03:32.997Z,100.00
2023-04-29T05:06:01.757Z,100.00
2023-04-29T05:08:30.936Z,100.00
2023-04-29T05:10:58.719Z,100.00
2023-04-29T05:13:26.864Z,100.00
2023-04-29T05:15:54.637Z,100.00
2023-04-29T05:18:23.420Z,100.00
2023-04-29T05:20:51.096Z,100.00
2023-04-29T05:23:18.784Z,100.00
2023-04-29T05:25:47.870Z,100.00
2023-04-29T05:28:15.511Z,100.00
2023-04-29T05:30:43.717Z,100.00
2023-04-29T05:33:12.033Z,100.00
2023-04-29T05:35:39.823Z,100.00
2023-04-29T05:38:07.536Z,100.00
2023-04-29T05:40:35.380Z,100.00
2023-04-29T05:43:04.450Z,100.00
2023-04-29T05:45:32.108Z,100.00
2023-04-29T05:47:59.899Z,100.00
2023-04-29T05:50:27.590Z,100.00
2023-04-29T05:52:56.476Z,100.00
2023-04-29T05:55:24.531Z,100.00
2023-04-29T05:57:52.207Z,100.00
2023-04-29T06:00:21.765Z,100.00
2023-04-29T06:02:58.092Z,100.00
2023-04-29T06:05:27.629Z,100.00
2023-04-29T06:07:55.887Z,100.00
2023-04-29T06:10:23.718Z,100.00
2023-04-29T06:12:51.883Z,100.00
2023-04-29T06:15:21.076Z,100.00
2023-04-29T06:17:49.387Z,100.00
2023-04-29T06:20:18.249Z,100.00
2023-04-29T06:22:46.329Z,100.00
2023-04-29T06:25:14.123Z,100.00
2023-04-29T06:27:41.927Z,100.00
2023-04-29T06:30:11.582Z,100.00
2023-04-29T06:32:41.023Z,100.00
2023-04-29T06:35:09.733Z,100.00
2023-04-29T06:37:38.244Z,100.00
2023-04-29T06:40:07.460Z,100.00
2023-04-29T06:42:35.184Z,100.00
2023-04-29T06:45:02.865Z,100.00
2023-04-29T06:47:31.099Z,100.00
2023-04-29T06:50:00.225Z,100.00
2023-04-29T06:52:27.931Z,100.00
2023-04-29T06:54:55.643Z,100.00
2023-04-29T06:57:23.475Z,100.00
2023-04-29T06:59:51.479Z,100.00
2023-04-29T07:02:19.452Z,100.00
2023-04-29T07:04:49.036Z,100.00
2023-04-29T07:07:18.217Z,100.00
2023-04-29T07:09:46.041Z,100.00
2023-04-29T07:12:13.790Z,100.00
2023-04-29T07:14:41.962Z,100.00
2023-04-29T07:17:09.997Z,100.00
2023-04-29T07:19:39.220Z,100.00
2023-04-29T07:22:06.904Z,100.00
2023-04-29T07:24:35.969Z,100.00
2023-04-29T07:27:04.376Z,100.00
2023-04-29T07:29:32.562Z,99.36
2023-04-29T07:32:00.213Z,99.88
2023-04-29T07:34:28.003Z,98.92
2023-04-29T07:36:56.219Z,97.92
2023-04-29T07:39:23.984Z,96.42
2023-04-29T07:41:53.141Z,95.78
2023-04-29T07:44:22.132Z,96.47
2023-04-29T07:46:49.881Z,96.36
2023-04-29T07:49:17.569Z,95.25
2023-04-29T07:51:45.399Z,98.08
2023-04-29T07:54:13.162Z,97.84
2023-04-29T07:56:40.874Z,98.70
2023-04-29T07:59:09.917Z,99.84
2023-04-29T08:01:37.659Z,99.02
2023-04-29T08:04:05.552Z,98.19
2023-04-29T08:06:33.362Z,98.13
2023-04-29T08:09:02.150Z,96.31
2023-04-29T08:11:30.944Z,97.40
2023-04-29T08:14:00.086Z,95.16
2023-04-29T08:16:29.269Z,99.08
2023-04-29T08:18:57.074Z,99.29
2023-04-29T08:21:24.928Z,98.16
2023-04-29T08:23:53.487Z,98.57
2023-04-29T08:26:22.554Z,97.52
2023-04-29T08:28:51.318Z,96.59
2023-04-29T08:31:19.074Z,96.04
2023-04-29T08:33:48.609Z,94.25
2023-04-29T08:36:16.328Z,95.58
2023-04-29T08:38:44.302Z,95.29
2023-04-29T08:41:12.312Z,95.50
2023-04-29T08:43:41.092Z,94.64
2023-04-29T08:46:09.351Z,93.40
2023-04-29T08:48:41.411Z,93.99
2023-04-29T08:51:14.428Z,95.17
2023-04-29T08:53:42.287Z,95.41
2023-04-29T08:56:17.483Z,96.07
2023-04-29T08:58:46.393Z,97.05
2023-04-29T09:01:15.385Z,97.36
2023-04-29T09:03:48.411Z,95.12
2023-04-29T09:06:18.554Z,95.48
2023-04-29T09:08:46.427Z,95.00
2023-04-29T09:11:15.223Z,92.56
2023-04-29T09:13:42.893Z,93.54
2023-04-29T09:16:12.877Z,93.60
2023-04-29T09:18:45.364Z,95.38
2023-04-29T09:21:22.035Z,93.85
2023-04-29T09:23:52.396Z,94.70
2023-04-29T09:26:20.714Z,93.54
2023-04-29T09:28:49.785Z,95.75
2023-04-29T09:31:28.916Z,94.03
2023-04-29T09:33:58.987Z,91.58
2023-04-29T09:36:44.897Z,92.63
2023-04-29T09:39:15.049Z,92.78
2023-04-29T09:42:00.045Z,94.48
2023-04-29T09:44:32.112Z,93.21
2023-04-29T09:47:03.815Z,94.16
2023-04-29T09:49:35.677Z,92.64
2023-04-29T09:52:06.024Z,92.53
2023-04-29T09:54:36.280Z,89.62
2023-04-29T09:57:06.034Z,89.21
2023-04-29T09:59:36.108Z,88.83
2023-04-29T10:02:09.350Z,90.07
2023-04-29T10:04:41.715Z,87.98
2023-04-29T10:07:15.042Z,88.20
2023-04-29T10:09:42.671Z,87.08
2023-04-29T10:12:11.011Z,87.58
2023-04-29T10:14:43.344Z,84.62
2023-04-29T10:17:17.392Z,84.38
2023-04-29T10:19:53.665Z,86.64
2023-04-29T10:22:30.872Z,87.05
2023-04-29T10:25:00.226Z,87.34
2023-04-29T10:27:28.956Z,85.80
2023-04-29T10:29:59.924Z,85.01
2023-04-29T10:32:36.977Z,83.03
2023-04-29T10:35:13.663Z,81.96
2023-04-29T10:37:43.435Z,82.96
2023-04-29T10:40:16.282Z,84.43
2023-04-29T10:42:46.335Z,81.50
2023-04-29T10:45:26.947Z,82.41
2023-04-29T10:48:13.091Z,80.12
2023-04-29T10:51:03.496Z,78.65
2023-04-29T10:53:32.865Z,78.26
2023-04-29T10:56:06.321Z,79.67
2023-04-29T10:58:46.011Z,80.00
2023-04-29T11:01:15.316Z,78.70
2023-04-29T11:03:48.264Z,79.95
2023-04-29T11:06:16.684Z,77.78
2023-04-29T11:08:45.863Z,81.41
2023-04-29T11:11:15.386Z,76.24
2023-04-29T11:13:47.144Z,79.98
2023-04-29T11:16:15.019Z,79.93
2023-04-29T11:19:06.928Z,79.88
2023-04-29T11:21:35.897Z,79.66
2023-04-29T11:24:06.353Z,81.09
2023-04-29T11:26:35.906Z,79.76
2023-04-29T11:29:03.753Z,80.59
2023-04-29T11:31:32.202Z,80.84
2023-04-29T11:34:00.533Z,80.34
2023-04-29T11:36:28.465Z,76.14
2023-04-29T11:38:56.385Z,74.59
2023-04-29T11:41:25.552Z,75.16
2023-04-29T11:43:57.622Z,77.29
2023-04-29T11:46:26.200Z,77.62
2023-04-29T11:48:53.982Z,75.50
2023-04-29T11:51:22.519Z,74.06
2023-04-29T11:53:50.440Z,73.97
2023-04-29T11:56:18.171Z,74.86
2023-04-29T11:58:47.276Z,79.80
2023-04-29T12:01:15.181Z,80.02
2023-04-29T12:03:46.429Z,76.22
2023-04-29T12:06:15.136Z,71.76
2023-04-29T12:08:42.930Z,74.27
2023-04-29T12:11:10.597Z,72.96
2023-04-29T12:13:38.659Z,71.07
2023-04-29T12:16:08.780Z,72.22
2023-04-29T12:18:36.607Z,72.72
2023-04-29T12:21:04.444Z,70.38
2023-04-29T12:23:32.182Z,72.48
2023-04-29T12:26:02.681Z,75.52
2023-04-29T12:28:30.610Z,70.59
2023-04-29T12:31:00.209Z,71.96
2023-04-29T12:33:31.449Z,68.30
2023-04-29T12:36:00.175Z,69.73
2023-04-29T12:38:29.003Z,70.95
2023-04-29T12:40:57.569Z,72.67
2023-04-29T12:43:28.247Z,67.84
2023-04-29T12:45:57.551Z,64.18
2023-04-29T12:48:33.626Z,64.56
2023-04-29T12:51:02.174Z,63.79
2023-04-29T12:53:31.449Z,63.11
2023-04-29T12:55:59.623Z,64.42
2023-04-29T12:58:30.057Z,60.82
2023-04-29T13:00:58.244Z,58.21
2023-04-29T13:03:26.884Z,64.76
2023-04-29T13:05:56.140Z,64.58
2023-04-29T13:08:23.901Z,66.24
2023-04-29T13:10:51.840Z,62.90
2023-04-29T13:13:19.712Z,63.33
2023-04-29T13:15:47.534Z,65.08
2023-04-29T13:18:15.757Z,62.82
2023-04-29T13:20:43.494Z,63.36
2023-04-29T13:23:13.037Z,60.78
2023-04-29T13:25:41.087Z,59.18
2023-04-29T13:28:08.810Z,58.69
2023-04-29T13:30:36.878Z,58.94
2023-04-29T13:33:11.784Z,60.19
2023-04-29T13:35:41.641Z,60.02
2023-04-29T13:38:09.795Z,60.28
2023-04-29T13:40:45.496Z,62.71
2023-04-29T13:43:20.940Z,63.03
2023-04-29T13:45:53.207Z,62.79
2023-04-29T13:53:52.817Z,60.72
2023-04-29T14:01:54.706Z,62.81
2023-04-29T14:04:02.635Z,62.63
2023-04-29T14:06:30.502Z,61.38
2023-04-29T14:08:58.216Z,61.30
2023-04-29T14:11:27.351Z,62.12
2023-04-29T14:13:55.105Z,63.39
2023-04-29T14:16:23.006Z,64.88
2023-04-29T14:18:51.004Z,62.52
2023-04-29T14:21:18.746Z,59.89
2023-04-29T14:23:46.480Z,61.95
2023-04-29T14:26:27.094Z,57.78
2023-04-29T14:28:58.310Z,63.07
2023-04-29T14:31:28.036Z,62.45
2023-04-29T14:33:56.062Z,64.95
2023-04-29T14:36:23.855Z,66.11
2023-04-29T14:38:51.537Z,65.39
2023-04-29T14:41:21.276Z,58.87
2023-04-29T14:43:48.985Z,58.07
2023-04-29T14:46:18.416Z,56.36
2023-04-29T14:48:46.200Z,57.76
2023-04-29T14:51:13.852Z,59.33
2023-04-29T14:53:41.616Z,62.32
2023-04-29T14:56:09.693Z,61.14
2023-04-29T14:58:37.407Z,60.83
2023-04-29T15:01:05.199Z,63.58
2023-04-29T15:03:40.188Z,62.96
2023-04-29T15:06:11.466Z,62.04
2023-04-29T15:08:39.545Z,60.47
2023-04-29T15:11:07.265Z,57.33
2023-04-29T15:13:34.995Z,59.46
2023-04-29T15:16:03.981Z,58.36
2023-04-29T15:18:31.888Z,59.11
2023-04-29T15:21:01.037Z,60.67
2023-04-29T15:23:28.709Z,60.00
2023-04-29T15:25:57.499Z,60.23
2023-04-29T15:28:25.917Z,59.03
2023-04-29T15:30:53.598Z,58.32
2023-04-29T15:33:21.342Z,57.71
2023-04-29T15:35:49.111Z,56.93
2023-04-29T15:38:18.416Z,56.92
2023-04-29T15:40:46.454Z,56.53
2023-04-29T15:43:14.226Z,56.15
2023-04-29T15:45:42.516Z,55.74
2023-04-29T15:48:10.361Z,56.31
2023-04-29T15:50:38.107Z,57.76
2023-04-29T15:53:05.855Z,59.85
2023-04-29T15:55:36.131Z,59.07
2023-04-29T15:58:03.843Z,62.28
2023-04-29T16:00:31.686Z,63.11
2023-04-29T16:02:59.543Z,63.59
2023-04-29T16:05:27.324Z,62.40
2023-04-29T16:07:55.052Z,61.87
2023-04-29T16:10:23.507Z,63.81
2023-04-29T16:12:52.557Z,61.64
2023-04-29T16:15:20.615Z,63.19
2023-04-29T16:17:48.365Z,62.62
2023-04-29T16:20:17.266Z,63.56
2023-04-29T16:22:44.967Z,62.81
2023-04-29T16:25:12.823Z,62.95
2023-04-29T16:27:40.523Z,63.58
2023-04-29T16:30:10.750Z,64.53
2023-04-29T16:32:38.630Z,61.39
2023-04-29T16:35:07.050Z,62.08
2023-04-29T16:37:34.739Z,61.04
2023-04-29T16:40:02.511Z,60.99
2023-04-29T16:42:30.258Z,61.51
2023-04-29T16:44:58.005Z,62.24
2023-04-29T16:47:27.136Z,61.20
2023-04-29T16:49:55.503Z,63.64
2023-04-29T16:52:24.061Z,65.81
2023-04-29T16:54:51.781Z,67.73
2023-04-29T16:57:21.341Z,68.56
2023-04-29T16:59:49.021Z,69.18
2023-04-29T17:02:16.742Z,70.69
2023-04-29T17:04:46.281Z,69.71
2023-04-29T17:07:14.319Z,69.34
2023-04-29T17:09:42.090Z,67.50
2023-04-29T17:12:10.267Z,67.22
2023-04-29T17:14:40.301Z,66.90
2023-04-29T17:17:08.259Z,65.74
2023-04-29T17:19:36.009Z,66.07
2023-04-29T17:22:05.099Z,64.60
2023-04-29T17:24:33.612Z,64.24
2023-04-29T17:27:01.377Z,63.41
2023-04-29T17:29:29.125Z,63.52
2023-04-29T17:31:59.912Z,64.63
2023-04-29T17:34:29.880Z,65.44
2023-04-29T17:36:57.700Z,66.46
2023-04-29T17:39:26.718Z,64.98
2023-04-29T17:41:54.453Z,66.30
2023-04-29T17:44:23.591Z,65.56
2023-04-29T17:46:51.533Z,64.53
2023-04-29T17:49:19.274Z,64.87
2023-04-29T17:51:46.986Z,65.56
2023-04-29T17:54:14.718Z,64.32
2023-04-29T17:56:43.733Z,64.87
2023-04-29T17:59:11.810Z,64.00
2023-04-29T18:01:39.912Z,67.20
2023-04-29T18:04:07.752Z,66.63
2023-04-29T18:06:35.787Z,66.69
2023-04-29T18:09:04.139Z,67.56
2023-04-29T18:11:31.970Z,67.14
2023-04-29T18:14:01.111Z,68.56
2023-04-29T18:16:28.959Z,66.68
2023-04-29T18:18:57.221Z,67.40
2023-04-29T18:21:25.525Z,66.66
2023-04-29T18:23:53.319Z,67.52
2023-04-29T18:26:21.204Z,66.66
2023-04-29T18:28:49.087Z,67.83
2023-04-29T18:31:18.609Z,67.11
2023-04-29T18:33:46.465Z,68.37
2023-04-29T18:36:14.712Z,70.61
2023-04-29T18:38:43.129Z,70.93
2023-04-29T18:41:11.944Z,72.22
2023-04-29T18:43:39.686Z,72.19
2023-04-29T18:46:07.545Z,71.46
2023-04-29T18:48:38.308Z,73.73
2023-04-29T18:51:06.080Z,71.55
2023-04-29T18:53:34.290Z,73.22
2023-04-29T18:56:02.091Z,77.33
2023-04-29T18:58:29.804Z,79.06
2023-04-29T19:00:59.796Z,77.86
2023-04-29T19:03:27.863Z,78.97
2023-04-29T19:05:56.966Z,77.75
2023-04-29T19:08:24.748Z,79.09
2023-04-29T19:10:53.438Z,79.39
2023-04-29T19:13:21.257Z,81.09
2023-04-29T19:15:50.763Z,83.08
2023-04-29T19:18:20.148Z,83.87
2023-04-29T19:20:48.820Z,81.88
2023-04-29T19:23:18.545Z,88.99
2023-04-29T19:25:46.271Z,86.82
2023-04-29T19:28:14.053Z,87.58
2023-04-29T19:30:41.726Z,86.73
2023-04-29T19:33:09.517Z,89.00
2023-04-29T19:35:37.335Z,88.70
2023-04-29T19:38:05.060Z,90.46
2023-04-29T19:40:34.083Z,91.53
2023-04-29T19:43:01.769Z,92.57
2023-04-29T19:45:29.507Z,90.30
2023-04-29T19:47:59.567Z,93.02
2023-04-29T19:50:27.494Z,94.35
2023-04-29T19:52:55.232Z,91.40
2023-04-29T19:55:23.028Z,92.24
2023-04-29T19:57:52.532Z,93.19
2023-04-29T20:00:20.507Z,94.79
2023-04-29T20:02:50.776Z,94.99
2023-04-29T20:05:19.579Z,93.05
2023-04-29T20:07:47.243Z,94.13
2023-04-29T20:10:15.380Z,96.33
2023-04-29T20:12:43.146Z,96.38
2023-04-29T20:15:12.689Z,94.97
2023-04-29T20:17:40.466Z,96.03
2023-04-29T20:20:09.915Z,97.31
2023-04-29T20:22:37.696Z,96.49
2023-04-29T20:25:05.844Z,99.23
2023-04-29T20:27:33.633Z,96.25
2023-04-29T20:30:01.514Z,95.71
2023-04-29T20:32:30.744Z,95.67
2023-04-29T20:34:58.499Z,95.19
2023-04-29T20:37:26.202Z,95.18
2023-04-29T20:39:54.085Z,96.80
2023-04-29T20:42:22.207Z,98.79
2023-04-29T20:44:49.947Z,96.45
2023-04-29T20:47:17.624Z,97.34
2023-04-29T20:49:46.697Z,96.85
2023-04-29T20:52:14.357Z,95.62
2023-04-29T20:54:42.177Z,95.94
2023-04-29T20:57:09.868Z,95.81
2023-04-29T20:59:37.631Z,94.84
2023-04-29T21:02:05.508Z,96.24
2023-04-29T21:04:33.344Z,97.29
2023-04-29T21:07:05.590Z,97.12
2023-04-29T21:09:33.418Z,97.10
2023-04-29T21:12:01.383Z,97.31
2023-04-29T21:14:29.135Z,96.02
2023-04-29T21:16:56.803Z,96.38
2023-04-29T21:19:24.541Z,97.48
2023-04-29T21:21:52.510Z,96.46
2023-04-29T21:24:21.564Z,95.28
2023-04-29T21:26:50.347Z,96.27
2023-04-29T21:29:18.046Z,98.59
2023-04-29T21:31:45.862Z,96.17
2023-04-29T21:34:13.717Z,96.74
2023-04-29T21:36:41.460Z,96.17
2023-04-29T21:39:09.940Z,96.01
2023-04-29T21:41:40.404Z,94.71
2023-04-29T21:44:08.449Z,94.77
2023-04-29T21:46:37.040Z,95.17
2023-04-29T21:49:05.035Z,93.93
2023-04-29T21:51:32.877Z,97.10
2023-04-29T21:54:01.057Z,95.62
2023-04-29T21:56:28.806Z,95.16
2023-04-29T21:58:57.872Z,93.59
2023-04-29T22:01:40.263Z,94.21
2023-04-29T22:04:08.439Z,95.90
2023-04-29T22:06:36.264Z,95.09
2023-04-29T22:09:04.925Z,95.93
2023-04-29T22:11:33.573Z,95.96
2023-04-29T22:14:02.690Z,98.16
2023-04-29T22:16:30.563Z,98.17
2023-04-29T22:18:58.770Z,95.76
2023-04-29T22:21:27.873Z,96.94
2023-04-29T22:23:55.972Z,97.57
2023-04-29T22:26:25.497Z,96.73
2023-04-29T22:28:53.403Z,97.16
2023-04-29T22:31:22.578Z,96.42
2023-04-29T22:33:50.924Z,96.69
2023-04-29T22:36:18.885Z,95.56
2023-04-29T22:38:46.606Z,96.26
2023-04-29T22:41:14.850Z,96.23
2023-04-29T22:43:42.568Z,96.16
2023-04-29T22:46:10.453Z,96.22
2023-04-29T22:48:39.577Z,97.98
2023-04-29T22:51:07.425Z,100.00
2023-04-29T22:53:35.177Z,100.00
2023-04-29T22:56:03.162Z,100.00
2023-04-29T22:58:31.561Z,100.00
2023-04-29T23:00:59.422Z,100.00
2023-04-29T23:03:27.827Z,100.00
2023-04-29T23:06:00.312Z,100.00
2023-04-29T23:08:28.295Z,99.89
2023-04-29T23:10:56.025Z,98.51
2023-04-29T23:13:23.845Z,96.36
2023-04-29T23:15:52.284Z,98.91
2023-04-29T23:18:20.070Z,98.39
2023-04-29T23:20:48.202Z,98.18
2023-04-29T23:23:17.224Z,97.52
2023-04-29T23:25:45.642Z,97.29
2023-04-29T23:28:13.456Z,97.59
2023-04-29T23:30:41.186Z,97.99
2023-04-29T23:33:09.044Z,97.74
2023-04-29T23:35:36.960Z,96.18
2023-04-29T23:38:04.710Z,96.74
2023-04-29T23:40:34.170Z,94.49
2023-04-29T23:43:01.865Z,96.64
2023-04-29T23:45:29.911Z,97.64
2023-04-29T23:47:57.633Z,96.20
2023-04-29T23:50:25.427Z,97.06
2023-04-29T23:52:53.452Z,97.06
2023-04-29T23:55:21.338Z,96.17
2023-04-29T23:57:50.363Z,96.64
